sensor_id;sensor_type;location;lat;lon;timestamp;P1;durP1;ratioP1;P2;durP2;ratioP2
52858;SDS011;38721;53.098;6.596;2024-03-02T00:02:19;3.80;;;2.80;;
52858;SDS011;38721;53.098;6.596;2024-03-02T00:04:45;4.22;;;2.85;;
52858;SDS011;38721;53.098;6.596;2024-03-02T00:07:10;5.47;;;3.20;;
52858;SDS011;38721;53.098;6.596;2024-03-02T00:09:39;4.35;;;3.30;;
52858;SDS011;38721;53.098;6.596;2024-03-02T00:12:05;4.50;;;3.03;;
52858;SDS011;38721;53.098;6.596;2024-03-02T00:14:31;4.15;;;3.35;;
52858;SDS011;38721;53.098;6.596;2024-03-02T00:16:57;4.53;;;3.13;;
52858;SDS011;38721;53.098;6.596;2024-03-02T00:19:24;4.43;;;3.15;;
52858;SDS011;38721;53.098;6.596;2024-03-02T00:21:50;4.85;;;3.20;;
52858;SDS011;38721;53.098;6.596;2024-03-02T00:24:31;4.15;;;2.92;;
52858;SDS011;38721;53.098;6.596;2024-03-02T00:26:58;5.15;;;2.97;;
52858;SDS011;38721;53.098;6.596;2024-03-02T00:29:24;4.10;;;3.25;;
52858;SDS011;38721;53.098;6.596;2024-03-02T00:31:50;3.67;;;3.13;;
52858;SDS011;38721;53.098;6.596;2024-03-02T00:34:17;4.45;;;3.47;;
52858;SDS011;38721;53.098;6.596;2024-03-02T00:36:42;4.43;;;3.38;;
52858;SDS011;38721;53.098;6.596;2024-03-02T00:39:12;4.55;;;3.50;;
52858;SDS011;38721;53.098;6.596;2024-03-02T00:41:40;4.70;;;3.25;;
52858;SDS011;38721;53.098;6.596;2024-03-02T00:44:10;4.63;;;3.00;;
52858;SDS011;38721;53.098;6.596;2024-03-02T00:46:38;4.95;;;3.45;;
52858;SDS011;38721;53.098;6.596;2024-03-02T00:51:37;3.92;;;2.80;;
52858;SDS011;38721;53.098;6.596;2024-03-02T00:54:07;4.55;;;2.95;;
52858;SDS011;38721;53.098;6.596;2024-03-02T00:56:33;4.22;;;3.22;;
52858;SDS011;38721;53.098;6.596;2024-03-02T00:59:02;4.13;;;3.00;;
52858;SDS011;38721;53.098;6.596;2024-03-02T01:01:28;4.47;;;2.75;;
52858;SDS011;38721;53.098;6.596;2024-03-02T01:03:54;4.30;;;3.20;;
52858;SDS011;38721;53.098;6.596;2024-03-02T01:06:20;4.90;;;3.05;;
52858;SDS011;38721;53.098;6.596;2024-03-02T01:08:47;3.75;;;2.85;;
52858;SDS011;38721;53.098;6.596;2024-03-02T01:11:16;3.83;;;3.30;;
52858;SDS011;38721;53.098;6.596;2024-03-02T01:13:42;3.88;;;2.70;;
52858;SDS011;38721;53.098;6.596;2024-03-02T01:16:09;4.63;;;3.08;;
52858;SDS011;38721;53.098;6.596;2024-03-02T01:18:34;3.70;;;2.80;;
52858;SDS011;38721;53.098;6.596;2024-03-02T01:21:00;4.00;;;3.00;;
52858;SDS011;38721;53.098;6.596;2024-03-02T01:23:26;4.00;;;2.90;;
52858;SDS011;38721;53.098;6.596;2024-03-02T01:25:52;3.58;;;2.60;;
52858;SDS011;38721;53.098;6.596;2024-03-02T01:28:18;4.30;;;3.00;;
52858;SDS011;38721;53.098;6.596;2024-03-02T01:30:45;5.10;;;2.78;;
52858;SDS011;38721;53.098;6.596;2024-03-02T01:33:12;5.88;;;3.00;;
52858;SDS011;38721;53.098;6.596;2024-03-02T01:35:38;4.43;;;3.10;;
52858;SDS011;38721;53.098;6.596;2024-03-02T01:38:04;4.80;;;3.00;;
52858;SDS011;38721;53.098;6.596;2024-03-02T01:40:32;4.30;;;2.85;;
52858;SDS011;38721;53.098;6.596;2024-03-02T01:42:59;5.72;;;2.80;;
52858;SDS011;38721;53.098;6.596;2024-03-02T01:45:24;4.38;;;3.00;;
52858;SDS011;38721;53.098;6.596;2024-03-02T01:47:50;4.35;;;2.83;;
52858;SDS011;38721;53.098;6.596;2024-03-02T01:50:16;4.30;;;2.95;;
52858;SDS011;38721;53.098;6.596;2024-03-02T01:52:54;3.55;;;2.75;;
52858;SDS011;38721;53.098;6.596;2024-03-02T01:55:23;4.50;;;2.95;;
52858;SDS011;38721;53.098;6.596;2024-03-02T01:57:49;4.78;;;2.92;;
52858;SDS011;38721;53.098;6.596;2024-03-02T02:00:19;3.25;;;2.78;;
52858;SDS011;38721;53.098;6.596;2024-03-02T02:02:45;3.83;;;3.05;;
52858;SDS011;38721;53.098;6.596;2024-03-02T02:05:12;3.90;;;3.30;;
52858;SDS011;38721;53.098;6.596;2024-03-02T02:07:40;4.03;;;2.95;;
52858;SDS011;38721;53.098;6.596;2024-03-02T02:10:07;3.40;;;2.80;;
52858;SDS011;38721;53.098;6.596;2024-03-02T02:12:33;4.88;;;3.20;;
52858;SDS011;38721;53.098;6.596;2024-03-02T02:14:59;3.92;;;2.75;;
52858;SDS011;38721;53.098;6.596;2024-03-02T02:17:25;3.40;;;2.60;;
52858;SDS011;38721;53.098;6.596;2024-03-02T02:19:50;3.78;;;2.90;;
52858;SDS011;38721;53.098;6.596;2024-03-02T02:22:16;5.60;;;3.00;;
52858;SDS011;38721;53.098;6.596;2024-03-02T02:24:42;3.75;;;2.80;;
52858;SDS011;38721;53.098;6.596;2024-03-02T02:27:08;4.43;;;3.05;;
52858;SDS011;38721;53.098;6.596;2024-03-02T02:29:34;5.57;;;3.30;;
52858;SDS011;38721;53.098;6.596;2024-03-02T02:32:00;5.10;;;3.38;;
52858;SDS011;38721;53.098;6.596;2024-03-02T02:34:26;4.25;;;3.42;;
52858;SDS011;38721;53.098;6.596;2024-03-02T02:36:52;3.78;;;2.78;;
52858;SDS011;38721;53.098;6.596;2024-03-02T02:39:19;4.63;;;3.20;;
52858;SDS011;38721;53.098;6.596;2024-03-02T02:41:46;3.58;;;2.80;;
52858;SDS011;38721;53.098;6.596;2024-03-02T02:44:12;4.93;;;3.10;;
52858;SDS011;38721;53.098;6.596;2024-03-02T02:46:40;4.25;;;2.95;;
52858;SDS011;38721;53.098;6.596;2024-03-02T02:49:06;4.65;;;2.97;;
52858;SDS011;38721;53.098;6.596;2024-03-02T02:51:34;3.47;;;2.63;;
52858;SDS011;38721;53.098;6.596;2024-03-02T02:54:00;5.22;;;2.92;;
52858;SDS011;38721;53.098;6.596;2024-03-02T02:56:25;3.78;;;3.03;;
52858;SDS011;38721;53.098;6.596;2024-03-02T02:58:51;3.85;;;2.80;;
52858;SDS011;38721;53.098;6.596;2024-03-02T03:01:17;5.95;;;3.17;;
52858;SDS011;38721;53.098;6.596;2024-03-02T03:03:43;4.03;;;2.80;;
52858;SDS011;38721;53.098;6.596;2024-03-02T03:06:09;3.78;;;2.78;;
52858;SDS011;38721;53.098;6.596;2024-03-02T03:08:35;4.80;;;2.80;;
52858;SDS011;38721;53.098;6.596;2024-03-02T03:11:01;3.55;;;2.65;;
52858;SDS011;38721;53.098;6.596;2024-03-02T03:13:27;4.38;;;2.70;;
52858;SDS011;38721;53.098;6.596;2024-03-02T03:15:52;5.18;;;3.08;;
52858;SDS011;38721;53.098;6.596;2024-03-02T03:18:18;3.83;;;2.60;;
52858;SDS011;38721;53.098;6.596;2024-03-02T03:20:44;3.42;;;2.70;;
52858;SDS011;38721;53.098;6.596;2024-03-02T03:23:10;4.22;;;2.53;;
52858;SDS011;38721;53.098;6.596;2024-03-02T03:25:40;4.72;;;2.80;;
52858;SDS011;38721;53.098;6.596;2024-03-02T03:28:07;3.67;;;2.72;;
52858;SDS011;38721;53.098;6.596;2024-03-02T03:30:36;4.13;;;2.70;;
52858;SDS011;38721;53.098;6.596;2024-03-02T03:33:03;3.25;;;2.63;;
52858;SDS011;38721;53.098;6.596;2024-03-02T03:35:29;3.80;;;2.78;;
52858;SDS011;38721;53.098;6.596;2024-03-02T03:37:55;3.38;;;2.60;;
52858;SDS011;38721;53.098;6.596;2024-03-02T03:40:20;4.85;;;2.50;;
52858;SDS011;38721;53.098;6.596;2024-03-02T03:42:46;5.35;;;2.78;;
52858;SDS011;38721;53.098;6.596;2024-03-02T03:45:12;5.05;;;2.80;;
52858;SDS011;38721;53.098;6.596;2024-03-02T03:47:37;3.45;;;2.60;;
52858;SDS011;38721;53.098;6.596;2024-03-02T03:50:03;4.50;;;2.80;;
52858;SDS011;38721;53.098;6.596;2024-03-02T03:52:32;2.83;;;2.25;;
52858;SDS011;38721;53.098;6.596;2024-03-02T03:54:58;4.05;;;2.60;;
52858;SDS011;38721;53.098;6.596;2024-03-02T03:57:25;3.33;;;2.80;;
52858;SDS011;38721;53.098;6.596;2024-03-02T03:59:51;3.72;;;2.60;;
52858;SDS011;38721;53.098;6.596;2024-03-02T04:02:17;3.83;;;2.80;;
52858;SDS011;38721;53.098;6.596;2024-03-02T04:04:43;3.55;;;2.97;;
52858;SDS011;38721;53.098;6.596;2024-03-02T04:07:09;4.25;;;2.80;;
52858;SDS011;38721;53.098;6.596;2024-03-02T04:09:34;4.90;;;2.95;;
52858;SDS011;38721;53.098;6.596;2024-03-02T04:12:00;3.38;;;2.50;;
52858;SDS011;38721;53.098;6.596;2024-03-02T04:14:26;10.48;;;3.13;;
52858;SDS011;38721;53.098;6.596;2024-03-02T04:16:51;4.22;;;2.85;;
52858;SDS011;38721;53.098;6.596;2024-03-02T04:19:17;3.30;;;2.33;;
52858;SDS011;38721;53.098;6.596;2024-03-02T04:21:48;3.55;;;2.85;;
52858;SDS011;38721;53.098;6.596;2024-03-02T04:24:14;4.82;;;2.90;;
52858;SDS011;38721;53.098;6.596;2024-03-02T04:26:40;4.50;;;2.90;;
52858;SDS011;38721;53.098;6.596;2024-03-02T04:29:05;4.75;;;2.70;;
52858;SDS011;38721;53.098;6.596;2024-03-02T04:31:31;5.30;;;2.90;;
52858;SDS011;38721;53.098;6.596;2024-03-02T04:33:57;4.45;;;2.75;;
52858;SDS011;38721;53.098;6.596;2024-03-02T04:36:22;4.25;;;2.88;;
52858;SDS011;38721;53.098;6.596;2024-03-02T04:38:48;3.38;;;2.78;;
52858;SDS011;38721;53.098;6.596;2024-03-02T04:41:14;4.47;;;2.80;;
52858;SDS011;38721;53.098;6.596;2024-03-02T04:43:40;3.33;;;2.70;;
52858;SDS011;38721;53.098;6.596;2024-03-02T04:46:06;3.95;;;2.60;;
52858;SDS011;38721;53.098;6.596;2024-03-02T04:48:32;4.57;;;2.85;;
52858;SDS011;38721;53.098;6.596;2024-03-02T04:50:59;3.63;;;2.67;;
52858;SDS011;38721;53.098;6.596;2024-03-02T04:53:25;5.03;;;3.03;;
52858;SDS011;38721;53.098;6.596;2024-03-02T04:55:50;3.90;;;2.75;;
52858;SDS011;38721;53.098;6.596;2024-03-02T04:58:19;3.53;;;2.72;;
52858;SDS011;38721;53.098;6.596;2024-03-02T05:00:45;4.20;;;2.83;;
52858;SDS011;38721;53.098;6.596;2024-03-02T05:03:11;3.83;;;2.92;;
52858;SDS011;38721;53.098;6.596;2024-03-02T05:05:38;4.75;;;2.85;;
52858;SDS011;38721;53.098;6.596;2024-03-02T05:08:04;4.53;;;3.15;;
52858;SDS011;38721;53.098;6.596;2024-03-02T05:10:30;4.15;;;2.88;;
52858;SDS011;38721;53.098;6.596;2024-03-02T05:12:55;3.45;;;2.60;;
52858;SDS011;38721;53.098;6.596;2024-03-02T05:15:24;4.00;;;2.60;;
52858;SDS011;38721;53.098;6.596;2024-03-02T05:17:50;4.00;;;2.95;;
52858;SDS011;38721;53.098;6.596;2024-03-02T05:20:16;4.30;;;2.90;;
52858;SDS011;38721;53.098;6.596;2024-03-02T05:22:42;3.85;;;2.65;;
52858;SDS011;38721;53.098;6.596;2024-03-02T05:25:08;6.30;;;3.30;;
52858;SDS011;38721;53.098;6.596;2024-03-02T05:27:36;5.00;;;3.30;;
52858;SDS011;38721;53.098;6.596;2024-03-02T05:30:02;4.97;;;3.40;;
52858;SDS011;38721;53.098;6.596;2024-03-02T05:32:31;6.15;;;3.15;;
52858;SDS011;38721;53.098;6.596;2024-03-02T05:34:57;5.82;;;3.20;;
52858;SDS011;38721;53.098;6.596;2024-03-02T05:37:22;4.38;;;2.95;;
52858;SDS011;38721;53.098;6.596;2024-03-02T05:39:48;3.72;;;2.90;;
52858;SDS011;38721;53.098;6.596;2024-03-02T05:42:14;4.80;;;3.13;;
52858;SDS011;38721;53.098;6.596;2024-03-02T05:44:41;3.38;;;2.53;;
52858;SDS011;38721;53.098;6.596;2024-03-02T05:47:07;4.93;;;3.08;;
52858;SDS011;38721;53.098;6.596;2024-03-02T05:49:35;5.80;;;3.47;;
52858;SDS011;38721;53.098;6.596;2024-03-02T05:52:01;4.28;;;3.08;;
52858;SDS011;38721;53.098;6.596;2024-03-02T05:54:28;5.15;;;2.75;;
52858;SDS011;38721;53.098;6.596;2024-03-02T05:56:53;3.90;;;2.88;;
52858;SDS011;38721;53.098;6.596;2024-03-02T05:59:19;5.20;;;2.90;;
52858;SDS011;38721;53.098;6.596;2024-03-02T06:01:45;4.70;;;3.10;;
52858;SDS011;38721;53.098;6.596;2024-03-02T06:04:12;5.28;;;2.72;;
52858;SDS011;38721;53.098;6.596;2024-03-02T06:06:38;4.80;;;2.95;;
52858;SDS011;38721;53.098;6.596;2024-03-02T06:09:05;4.28;;;3.03;;
52858;SDS011;38721;53.098;6.596;2024-03-02T06:11:38;3.15;;;2.67;;
52858;SDS011;38721;53.098;6.596;2024-03-02T06:14:05;6.47;;;3.13;;
52858;SDS011;38721;53.098;6.596;2024-03-02T06:16:32;4.90;;;3.00;;
52858;SDS011;38721;53.098;6.596;2024-03-02T06:18:58;4.35;;;3.03;;
52858;SDS011;38721;53.098;6.596;2024-03-02T06:21:24;5.20;;;3.00;;
52858;SDS011;38721;53.098;6.596;2024-03-02T06:23:51;4.10;;;3.15;;
52858;SDS011;38721;53.098;6.596;2024-03-02T06:26:16;3.35;;;2.53;;
52858;SDS011;38721;53.098;6.596;2024-03-02T06:28:43;3.60;;;2.70;;
52858;SDS011;38721;53.098;6.596;2024-03-02T06:31:09;4.28;;;2.90;;
52858;SDS011;38721;53.098;6.596;2024-03-02T06:33:35;4.28;;;2.63;;
52858;SDS011;38721;53.098;6.596;2024-03-02T06:36:01;5.05;;;2.78;;
52858;SDS011;38721;53.098;6.596;2024-03-02T06:38:27;4.60;;;3.17;;
52858;SDS011;38721;53.098;6.596;2024-03-02T06:40:52;3.58;;;2.67;;
52858;SDS011;38721;53.098;6.596;2024-03-02T06:43:18;3.40;;;2.75;;
52858;SDS011;38721;53.098;6.596;2024-03-02T06:45:48;4.03;;;2.53;;
52858;SDS011;38721;53.098;6.596;2024-03-02T06:48:15;2.97;;;2.55;;
52858;SDS011;38721;53.098;6.596;2024-03-02T06:50:45;5.50;;;3.30;;
52858;SDS011;38721;53.098;6.596;2024-03-02T06:53:11;4.45;;;2.80;;
52858;SDS011;38721;53.098;6.596;2024-03-02T06:55:37;4.82;;;2.83;;
52858;SDS011;38721;53.098;6.596;2024-03-02T06:58:03;5.45;;;2.90;;
52858;SDS011;38721;53.098;6.596;2024-03-02T07:00:30;3.95;;;2.90;;
52858;SDS011;38721;53.098;6.596;2024-03-02T07:02:55;5.03;;;3.10;;
52858;SDS011;38721;53.098;6.596;2024-03-02T07:05:21;4.13;;;2.70;;
52858;SDS011;38721;53.098;6.596;2024-03-02T07:07:47;3.65;;;2.83;;
52858;SDS011;38721;53.098;6.596;2024-03-02T07:10:12;4.72;;;3.10;;
52858;SDS011;38721;53.098;6.596;2024-03-02T07:12:38;4.13;;;2.90;;
52858;SDS011;38721;53.098;6.596;2024-03-02T07:15:04;4.30;;;3.08;;
52858;SDS011;38721;53.098;6.596;2024-03-02T07:17:31;4.82;;;3.00;;
52858;SDS011;38721;53.098;6.596;2024-03-02T07:19:57;4.90;;;2.95;;
52858;SDS011;38721;53.098;6.596;2024-03-02T07:22:23;4.00;;;3.00;;
52858;SDS011;38721;53.098;6.596;2024-03-02T07:24:49;4.18;;;2.92;;
52858;SDS011;38721;53.098;6.596;2024-03-02T07:27:15;3.80;;;2.97;;
52858;SDS011;38721;53.098;6.596;2024-03-02T07:29:42;4.75;;;3.10;;
52858;SDS011;38721;53.098;6.596;2024-03-02T07:32:09;4.65;;;3.03;;
52858;SDS011;38721;53.098;6.596;2024-03-02T07:34:36;4.80;;;3.45;;
52858;SDS011;38721;53.098;6.596;2024-03-02T07:37:02;4.15;;;3.15;;
52858;SDS011;38721;53.098;6.596;2024-03-02T07:39:28;4.20;;;3.08;;
52858;SDS011;38721;53.098;6.596;2024-03-02T07:41:55;5.80;;;3.10;;
52858;SDS011;38721;53.098;6.596;2024-03-02T07:44:21;5.10;;;3.35;;
52858;SDS011;38721;53.098;6.596;2024-03-02T07:46:47;4.45;;;3.00;;
52858;SDS011;38721;53.098;6.596;2024-03-02T07:49:16;3.70;;;2.70;;
52858;SDS011;38721;53.098;6.596;2024-03-02T07:51:43;4.70;;;3.00;;
52858;SDS011;38721;53.098;6.596;2024-03-02T07:54:08;6.25;;;2.65;;
52858;SDS011;38721;53.098;6.596;2024-03-02T07:56:34;3.92;;;2.50;;
52858;SDS011;38721;53.098;6.596;2024-03-02T07:59:03;3.58;;;2.30;;
52858;SDS011;38721;53.098;6.596;2024-03-02T08:01:32;4.93;;;2.80;;
52858;SDS011;38721;53.098;6.596;2024-03-02T08:03:58;3.08;;;2.35;;
52858;SDS011;38721;53.098;6.596;2024-03-02T08:06:28;3.00;;;2.40;;
52858;SDS011;38721;53.098;6.596;2024-03-02T08:08:55;3.53;;;2.47;;
52858;SDS011;38721;53.098;6.596;2024-03-02T08:11:21;5.60;;;2.67;;
52858;SDS011;38721;53.098;6.596;2024-03-02T08:13:47;3.95;;;2.70;;
52858;SDS011;38721;53.098;6.596;2024-03-02T08:16:13;3.95;;;2.20;;
52858;SDS011;38721;53.098;6.596;2024-03-02T08:18:46;2.72;;;1.90;;
52858;SDS011;38721;53.098;6.596;2024-03-02T08:21:13;4.40;;;2.60;;
52858;SDS011;38721;53.098;6.596;2024-03-02T08:23:39;3.92;;;2.75;;
52858;SDS011;38721;53.098;6.596;2024-03-02T08:26:07;4.05;;;2.70;;
52858;SDS011;38721;53.098;6.596;2024-03-02T08:28:33;2.92;;;2.20;;
52858;SDS011;38721;53.098;6.596;2024-03-02T08:30:59;3.33;;;2.10;;
52858;SDS011;38721;53.098;6.596;2024-03-02T08:33:25;2.92;;;1.85;;
52858;SDS011;38721;53.098;6.596;2024-03-02T08:35:51;3.88;;;2.05;;
52858;SDS011;38721;53.098;6.596;2024-03-02T08:38:17;2.70;;;1.90;;
52858;SDS011;38721;53.098;6.596;2024-03-02T08:40:43;2.30;;;1.55;;
52858;SDS011;38721;53.098;6.596;2024-03-02T08:43:09;2.38;;;1.65;;
52858;SDS011;38721;53.098;6.596;2024-03-02T08:45:35;3.78;;;1.67;;
52858;SDS011;38721;53.098;6.596;2024-03-02T08:48:01;1.58;;;1.40;;
52858;SDS011;38721;53.098;6.596;2024-03-02T08:50:27;2.20;;;1.50;;
52858;SDS011;38721;53.098;6.596;2024-03-02T08:52:52;1.73;;;1.27;;
52858;SDS011;38721;53.098;6.596;2024-03-02T08:55:18;1.98;;;1.35;;
52858;SDS011;38721;53.098;6.596;2024-03-02T08:57:44;2.42;;;1.50;;
52858;SDS011;38721;53.098;6.596;2024-03-02T09:00:10;4.00;;;1.80;;
52858;SDS011;38721;53.098;6.596;2024-03-02T09:02:36;2.28;;;1.70;;
52858;SDS011;38721;53.098;6.596;2024-03-02T09:05:02;1.90;;;1.23;;
52858;SDS011;38721;53.098;6.596;2024-03-02T09:07:29;1.80;;;1.35;;
52858;SDS011;38721;53.098;6.596;2024-03-02T09:09:54;3.03;;;1.58;;
52858;SDS011;38721;53.098;6.596;2024-03-02T09:12:20;2.15;;;1.42;;
52858;SDS011;38721;53.098;6.596;2024-03-02T09:14:47;2.00;;;1.17;;
52858;SDS011;38721;53.098;6.596;2024-03-02T09:17:13;1.73;;;1.10;;
52858;SDS011;38721;53.098;6.596;2024-03-02T09:19:39;1.70;;;1.38;;
52858;SDS011;38721;53.098;6.596;2024-03-02T09:22:05;3.80;;;1.27;;
52858;SDS011;38721;53.098;6.596;2024-03-02T09:24:31;1.42;;;1.00;;
52858;SDS011;38721;53.098;6.596;2024-03-02T09:26:58;3.88;;;1.20;;
52858;SDS011;38721;53.098;6.596;2024-03-02T09:29:24;2.08;;;1.17;;
52858;SDS011;38721;53.098;6.596;2024-03-02T09:31:50;2.42;;;1.30;;
52858;SDS011;38721;53.098;6.596;2024-03-02T09:34:16;2.90;;;1.58;;
52858;SDS011;38721;53.098;6.596;2024-03-02T09:36:42;1.80;;;1.00;;
52858;SDS011;38721;53.098;6.596;2024-03-02T09:39:08;2.40;;;1.58;;
52858;SDS011;38721;53.098;6.596;2024-03-02T09:41:35;1.33;;;1.05;;
52858;SDS011;38721;53.098;6.596;2024-03-02T09:44:02;3.13;;;1.25;;
52858;SDS011;38721;53.098;6.596;2024-03-02T09:46:28;2.75;;;1.25;;
52858;SDS011;38721;53.098;6.596;2024-03-02T09:48:54;2.50;;;1.20;;
52858;SDS011;38721;53.098;6.596;2024-03-02T09:51:19;1.80;;;1.20;;
52858;SDS011;38721;53.098;6.596;2024-03-02T09:53:45;1.65;;;0.95;;
52858;SDS011;38721;53.098;6.596;2024-03-02T09:56:13;2.20;;;1.08;;
52858;SDS011;38721;53.098;6.596;2024-03-02T09:58:40;2.35;;;0.75;;
52858;SDS011;38721;53.098;6.596;2024-03-02T10:01:06;1.98;;;0.90;;
52858;SDS011;38721;53.098;6.596;2024-03-02T10:03:33;1.77;;;1.10;;
52858;SDS011;38721;53.098;6.596;2024-03-02T10:08:47;1.67;;;1.10;;
52858;SDS011;38721;53.098;6.596;2024-03-02T10:16:34;1.70;;;1.10;;
52858;SDS011;38721;53.098;6.596;2024-03-02T10:19:14;3.67;;;1.20;;
52858;SDS011;38721;53.098;6.596;2024-03-02T10:21:51;2.28;;;1.20;;
52858;SDS011;38721;53.098;6.596;2024-03-02T10:24:20;2.88;;;0.80;;
52858;SDS011;38721;53.098;6.596;2024-03-02T10:26:47;2.00;;;1.05;;
52858;SDS011;38721;53.098;6.596;2024-03-02T10:29:13;1.58;;;1.00;;
52858;SDS011;38721;53.098;6.596;2024-03-02T10:31:40;2.22;;;1.30;;
52858;SDS011;38721;53.098;6.596;2024-03-02T10:34:07;2.72;;;1.33;;
52858;SDS011;38721;53.098;6.596;2024-03-02T10:36:36;1.55;;;1.02;;
52858;SDS011;38721;53.098;6.596;2024-03-02T10:39:05;2.38;;;1.20;;
52858;SDS011;38721;53.098;6.596;2024-03-02T10:41:33;2.45;;;1.45;;
52858;SDS011;38721;53.098;6.596;2024-03-02T10:44:08;1.70;;;1.20;;
52858;SDS011;38721;53.098;6.596;2024-03-02T10:46:35;2.53;;;1.20;;
52858;SDS011;38721;53.098;6.596;2024-03-02T10:49:03;1.65;;;1.30;;
52858;SDS011;38721;53.098;6.596;2024-03-02T10:51:31;1.58;;;0.93;;
52858;SDS011;38721;53.098;6.596;2024-03-02T10:53:58;2.83;;;1.40;;
52858;SDS011;38721;53.098;6.596;2024-03-02T10:56:42;1.45;;;1.17;;
52858;SDS011;38721;53.098;6.596;2024-03-02T11:01:47;3.22;;;1.23;;
52858;SDS011;38721;53.098;6.596;2024-03-02T11:04:15;2.22;;;1.10;;
52858;SDS011;38721;53.098;6.596;2024-03-02T11:06:44;2.03;;;1.20;;
52858;SDS011;38721;53.098;6.596;2024-03-02T11:09:13;3.28;;;1.20;;
52858;SDS011;38721;53.098;6.596;2024-03-02T11:11:40;1.52;;;1.13;;
52858;SDS011;38721;53.098;6.596;2024-03-02T11:14:13;3.28;;;1.13;;
52858;SDS011;38721;53.098;6.596;2024-03-02T11:16:41;1.55;;;0.90;;
52858;SDS011;38721;53.098;6.596;2024-03-02T11:19:10;1.23;;;0.80;;
52858;SDS011;38721;53.098;6.596;2024-03-02T11:21:37;1.73;;;1.05;;
52858;SDS011;38721;53.098;6.596;2024-03-02T11:26:52;1.48;;;1.10;;
52858;SDS011;38721;53.098;6.596;2024-03-02T11:32:04;1.92;;;1.00;;
52858;SDS011;38721;53.098;6.596;2024-03-02T11:34:32;1.35;;;1.15;;
52858;SDS011;38721;53.098;6.596;2024-03-02T11:37:01;2.17;;;1.40;;
52858;SDS011;38721;53.098;6.596;2024-03-02T11:39:28;1.15;;;1.02;;
52858;SDS011;38721;53.098;6.596;2024-03-02T11:41:55;0.70;;;0.70;;
52858;SDS011;38721;53.098;6.596;2024-03-02T11:44:22;2.92;;;1.10;;
52858;SDS011;38721;53.098;6.596;2024-03-02T11:47:09;2.08;;;1.08;;
52858;SDS011;38721;53.098;6.596;2024-03-02T11:49:46;2.38;;;1.40;;
52858;SDS011;38721;53.098;6.596;2024-03-02T11:52:12;1.67;;;1.20;;
52858;SDS011;38721;53.098;6.596;2024-03-02T11:54:41;2.08;;;1.30;;
52858;SDS011;38721;53.098;6.596;2024-03-02T11:57:20;2.85;;;1.42;;
52858;SDS011;38721;53.098;6.596;2024-03-02T11:59:49;2.22;;;1.00;;
52858;SDS011;38721;53.098;6.596;2024-03-02T12:02:16;2.28;;;1.08;;
52858;SDS011;38721;53.098;6.596;2024-03-02T12:04:46;5.20;;;1.15;;
52858;SDS011;38721;53.098;6.596;2024-03-02T12:07:19;1.55;;;1.25;;
52858;SDS011;38721;53.098;6.596;2024-03-02T12:09:49;1.63;;;1.10;;
52858;SDS011;38721;53.098;6.596;2024-03-02T12:12:25;2.70;;;1.10;;
52858;SDS011;38721;53.098;6.596;2024-03-02T12:14:52;2.80;;;1.40;;
52858;SDS011;38721;53.098;6.596;2024-03-02T12:17:20;2.83;;;1.40;;
52858;SDS011;38721;53.098;6.596;2024-03-02T12:19:46;2.67;;;1.23;;
52858;SDS011;38721;53.098;6.596;2024-03-02T12:22:13;3.03;;;1.30;;
52858;SDS011;38721;53.098;6.596;2024-03-02T12:24:39;3.70;;;2.00;;
52858;SDS011;38721;53.098;6.596;2024-03-02T12:27:05;2.63;;;1.73;;
52858;SDS011;38721;53.098;6.596;2024-03-02T12:29:32;2.83;;;1.80;;
52858;SDS011;38721;53.098;6.596;2024-03-02T12:31:59;2.63;;;1.60;;
52858;SDS011;38721;53.098;6.596;2024-03-02T12:34:26;1.27;;;1.17;;
52858;SDS011;38721;53.098;6.596;2024-03-02T12:36:52;2.50;;;1.70;;
52858;SDS011;38721;53.098;6.596;2024-03-02T12:39:18;3.50;;;1.20;;
52858;SDS011;38721;53.098;6.596;2024-03-02T12:41:45;2.78;;;1.05;;
52858;SDS011;38721;53.098;6.596;2024-03-02T12:44:12;1.45;;;1.13;;
52858;SDS011;38721;53.098;6.596;2024-03-02T12:46:37;2.78;;;1.30;;
52858;SDS011;38721;53.098;6.596;2024-03-02T12:49:07;2.92;;;1.52;;
52858;SDS011;38721;53.098;6.596;2024-03-02T12:51:35;3.10;;;1.60;;
52858;SDS011;38721;53.098;6.596;2024-03-02T12:54:02;2.88;;;1.92;;
52858;SDS011;38721;53.098;6.596;2024-03-02T12:56:28;4.25;;;1.85;;
52858;SDS011;38721;53.098;6.596;2024-03-02T12:58:55;2.85;;;2.10;;
52858;SDS011;38721;53.098;6.596;2024-03-02T13:01:21;3.17;;;1.95;;
52858;SDS011;38721;53.098;6.596;2024-03-02T13:03:50;2.30;;;1.80;;
52858;SDS011;38721;53.098;6.596;2024-03-02T13:06:18;2.45;;;2.25;;
52858;SDS011;38721;53.098;6.596;2024-03-02T13:08:44;3.90;;;2.40;;
52858;SDS011;38721;53.098;6.596;2024-03-02T13:11:11;5.22;;;2.60;;
52858;SDS011;38721;53.098;6.596;2024-03-02T13:13:41;2.35;;;2.15;;
52858;SDS011;38721;53.098;6.596;2024-03-02T13:16:10;3.72;;;2.55;;
52858;SDS011;38721;53.098;6.596;2024-03-02T13:18:38;4.35;;;2.28;;
52858;SDS011;38721;53.098;6.596;2024-03-02T13:21:05;3.53;;;2.92;;
52858;SDS011;38721;53.098;6.596;2024-03-02T13:23:31;4.03;;;2.58;;
52858;SDS011;38721;53.098;6.596;2024-03-02T13:25:57;4.28;;;2.88;;
52858;SDS011;38721;53.098;6.596;2024-03-02T13:28:23;3.95;;;3.38;;
52858;SDS011;38721;53.098;6.596;2024-03-02T13:30:52;4.43;;;2.95;;
52858;SDS011;38721;53.098;6.596;2024-03-02T13:33:18;4.97;;;3.30;;
52858;SDS011;38721;53.098;6.596;2024-03-02T13:35:50;5.63;;;3.30;;
52858;SDS011;38721;53.098;6.596;2024-03-02T13:38:19;3.42;;;3.13;;
52858;SDS011;38721;53.098;6.596;2024-03-02T13:40:49;4.97;;;3.42;;
52858;SDS011;38721;53.098;6.596;2024-03-02T13:43:17;4.00;;;3.20;;
52858;SDS011;38721;53.098;6.596;2024-03-02T13:45:44;3.95;;;3.22;;
52858;SDS011;38721;53.098;6.596;2024-03-02T13:48:10;3.70;;;3.13;;
52858;SDS011;38721;53.098;6.596;2024-03-02T13:50:35;4.65;;;3.17;;
52858;SDS011;38721;53.098;6.596;2024-03-02T13:53:01;3.30;;;2.92;;
52858;SDS011;38721;53.098;6.596;2024-03-02T13:55:28;4.18;;;2.90;;
52858;SDS011;38721;53.098;6.596;2024-03-02T13:57:54;3.10;;;2.70;;
52858;SDS011;38721;53.098;6.596;2024-03-02T14:00:20;5.05;;;3.10;;
52858;SDS011;38721;53.098;6.596;2024-03-02T14:02:46;3.45;;;2.75;;
52858;SDS011;38721;53.098;6.596;2024-03-02T14:05:14;5.63;;;3.03;;
52858;SDS011;38721;53.098;6.596;2024-03-02T14:07:41;3.05;;;2.50;;
52858;SDS011;38721;53.098;6.596;2024-03-02T14:10:07;3.63;;;2.80;;
52858;SDS011;38721;53.098;6.596;2024-03-02T14:12:33;2.95;;;2.40;;
52858;SDS011;38721;53.098;6.596;2024-03-02T14:14:58;2.90;;;2.58;;
52858;SDS011;38721;53.098;6.596;2024-03-02T14:17:27;2.63;;;2.30;;
52858;SDS011;38721;53.098;6.596;2024-03-02T14:19:53;3.33;;;2.63;;
52858;SDS011;38721;53.098;6.596;2024-03-02T14:22:19;3.22;;;2.40;;
52858;SDS011;38721;53.098;6.596;2024-03-02T14:24:45;4.07;;;2.22;;
52858;SDS011;38721;53.098;6.596;2024-03-02T14:27:11;3.08;;;2.28;;
52858;SDS011;38721;53.098;6.596;2024-03-02T14:29:37;3.30;;;2.00;;
52858;SDS011;38721;53.098;6.596;2024-03-02T14:32:04;3.22;;;2.05;;
52858;SDS011;38721;53.098;6.596;2024-03-02T14:34:30;3.60;;;2.03;;
52858;SDS011;38721;53.098;6.596;2024-03-02T14:36:56;2.85;;;1.70;;
52858;SDS011;38721;53.098;6.596;2024-03-02T14:39:22;2.67;;;1.50;;
52858;SDS011;38721;53.098;6.596;2024-03-02T14:41:48;1.77;;;1.05;;
52858;SDS011;38721;53.098;6.596;2024-03-02T14:44:14;1.45;;;0.88;;
52858;SDS011;38721;53.098;6.596;2024-03-02T14:46:40;1.30;;;1.00;;
52858;SDS011;38721;53.098;6.596;2024-03-02T14:49:07;4.05;;;1.13;;
52858;SDS011;38721;53.098;6.596;2024-03-02T14:51:33;1.20;;;1.00;;
52858;SDS011;38721;53.098;6.596;2024-03-02T14:53:59;2.05;;;1.05;;
52858;SDS011;38721;53.098;6.596;2024-03-02T14:56:25;1.95;;;1.10;;
52858;SDS011;38721;53.098;6.596;2024-03-02T14:58:50;1.15;;;0.93;;
52858;SDS011;38721;53.098;6.596;2024-03-02T15:01:16;1.77;;;1.00;;
52858;SDS011;38721;53.098;6.596;2024-03-02T15:03:42;2.67;;;1.67;;
52858;SDS011;38721;53.098;6.596;2024-03-02T15:06:09;2.92;;;1.40;;